• Join FlightAware (Why Join?)
  • Login
  • US Flag 
03:16AM EST


 

Airport Tracker/Info


-or-


 

Live Flight TrackerFlight Track Log ✈ SWA2702 ✈ 04-Sep-2013 ✈ KLAS - KSMF

Flight Track Log - Related Links

Times and Time Zones

All times are in EDT time to prevent confusion due to time zone crossing. See the SWA2702 flight status page for this flight to view local times or setup timezone preferences in your user account.

Time Position Orientation Groundspeed Altitude Reporting Facility
EDT Latitude Longitude Course Direction KTS MPH feet Rate Location/Type
10:37AM 36.0625 -115.2550 258° West 240 276 5,300  Level Los Angeles Center
10:39AM 35.9906 -115.2919 203° Southwest 253 291 7,100 2,280 Climbing Los Angeles Center
10:40AM 35.9286 -115.3547 219° Southwest 284 327 10,200 2,640 Climbing Los Angeles Center
10:41AM 35.8872 -115.4158 230° Southwest 285 328 12,800 2,640 Climbing Los Angeles Center
10:42AM 35.8883 -115.5592 271° West 317 365 15,900 2,700 Climbing Los Angeles Center
10:43AM 35.8914 -115.6869 272° West 368 423 18,400 2,640 Climbing Los Angeles Center
10:44AM 35.9183 -115.8239 284° West 393 452 21,400 2,460 Climbing Los Angeles Center
10:45AM 35.9933 -115.9278 312° West 408 470 23,500 1,920 Climbing Los Angeles Center
10:46AM 36.0597 -116.0228 311° West 414 476 25,400 1,860 Climbing Los Angeles Center
10:47AM 36.1547 -116.1578 311° West 431 496 27,400 1,560 Climbing Los Angeles Center
10:48AM 36.2158 -116.2439 311° West 444 511 28,700 1,500 Climbing Los Angeles Center
10:49AM 36.2983 -116.3611 311° West 450 518 30,500 1,860 Climbing Los Angeles Center
10:50AM 36.3972 -116.5022 311° West 453 521 32,600 1,680 Climbing Los Angeles Center
10:51AM 36.4778 -116.6197 310° West 452 520 34,000 660 Climbing Los Angeles Center
10:52AM 36.5658 -116.7458 311° West 448 516 34,000  Level Los Angeles Center
10:53AM 36.6544 -116.8608 314° West 455 524 34,000  Level Los Angeles Center
10:54AM 36.7514 -116.9831 315° West 453 521 34,000  Level Los Angeles Center
10:55AM 36.8467 -117.1075 314° West 451 519 34,000  Level Los Angeles Center
10:56AM 36.9331 -117.2197 314° West 448 516 34,000  Level Los Angeles Center
10:57AM 37.0178 -117.3286 314° West 439 505 34,000  Level Los Angeles Center
10:59AM 37.1889 -117.5514 314° West 442 509 34,000  Level Los Angeles Center
11:00AM 37.2731 -117.6625 314° West 438 504 34,000  Level Los Angeles Center
11:01AM 37.3586 -117.7733 314° West 440 506 34,000  Level Los Angeles Center
11:02AM 37.4436 -117.8850 314° West 439 505 34,000  Level Los Angeles Center
11:03AM 37.5458 -118.0206 314° West 443 510 34,000  Level Los Angeles Center
11:04AM 37.6314 -118.1342 314° West 444 511 34,000 -300 Level Los Angeles Center
11:05AM 37.7164 -118.2481 313° West 442 509 33,500 -840 Descending Los Angeles Center
11:07AM 37.8164 -118.3825 313° West 439 505 32,200 -1,020 Descending Oakland Center
11:08AM 37.9017 -118.4967 313° West 444 511 31,300 -900 Descending Oakland Center
11:09AM 37.9872 -118.6117 313° West 446 513 30,400 -660 Descending Oakland Center
11:10AM 38.0725 -118.7292 313° West 451 519 30,000 -240 Descending Oakland Center
11:11AM 38.1561 -118.8422 313° West 452 520 30,000  Level Oakland Center
11:12AM 38.2414 -118.9592 313° West 451 519 30,000  Level Oakland Center
11:13AM 38.3278 -119.0767 313° West 452 520 30,000  Level Oakland Center
11:14AM 38.4292 -119.2175 313° West 449 517 30,000 -180 Level Oakland Center
11:15AM 38.5086 -119.3394 310° West 448 516 29,700 -720 Descending Oakland Center
11:16AM 38.5531 -119.4817 292° West 435 501 28,600 -1,080 Descending Oakland Center
11:17AM 38.5939 -119.6203 291° West 420 483 27,600 -960 Descending Oakland Center
11:18AM 38.6347 -119.7600 291° West 420 483 26,700 -1,020 Descending Oakland Center
11:19AM 38.6756 -119.9050 290° West 419 482 25,600 -1,500 Descending Oakland Center
11:20AM 38.7183 -120.0419 292° West 417 480 23,700 -1,980 Descending Oakland Center
11:21AM 38.7539 -120.1717 289° West 395 455 21,600 -1,860 Descending Oakland Center
11:22AM 38.7906 -120.2950 291° West 376 433 20,000 -1,260 Descending Oakland Center
11:23AM 38.8253 -120.4164 290° West 366 421 19,100 -1,200 Descending Oakland Center
11:24AM 38.8597 -120.5386 290° West 365 420 17,600 -1,920 Descending Oakland Center
11:25AM 38.8661 -120.6589 274° West 337 388 15,300 -2,460 Descending Oakland Center
11:26AM 38.8706 -120.7769 273° West 333 383 12,600 -2,460 Descending Oakland Center
11:27AM 38.8761 -120.9169 273° West 328 377 10,300 -1,620 Descending Oakland Center
11:28AM 38.8794 -121.0197 272° West 295 339 9,400 -1,560 Descending Oakland Center
11:29AM 38.8825 -121.1175 272° West 279 321 7,200 -1,800 Descending Oakland Center
11:30AM 38.8844 -121.2122 272° West 270 311 5,800 -1,440 Descending Oakland Center
11:31AM 38.8661 -121.2961 254° West 247 284 4,300 -1,140 Descending Oakland Center
11:32AM 38.8486 -121.3739 254° West 234 269 3,600 -1,020 Descending Oakland Center
11:33AM 38.8308 -121.4483 253° West 223 257 2,300 -900 Descending Oakland Center
11:34AM 38.8128 -121.5336 255° West 211 243 1,800 -480 Descending Oakland Center
11:35AM 38.7850 -121.5761 230° Southwest 184 212 1,400 -540 Descending Oakland Center
11:36AM 38.7469 -121.5794 184° South 153 176 800 -600 Descending Oakland Center
11:37AM 38.7167 -121.5833 186° South 122 140 300 -540 Descending Northern Cal TRACON
11:39AM 38.6954 -121.5908 218° Southwest  Level Estimated
11:46AM 38.6954 -121.5908 218° Southwest  Level Estimated
11:47AM 38.6954 -121.5908 218° Southwest  Level Estimated